sensor_id;sensor_type;location;lat;lon;timestamp;P1;durP1;ratioP1;P2;durP2;ratioP2
6527;SDS011;64597;42.664;23.256;2023-11-21T00:00:17;7.82;;;3.97;;
6527;SDS011;64597;42.664;23.256;2023-11-21T00:02:43;11.02;;;4.90;;
6527;SDS011;64597;42.664;23.256;2023-11-21T00:05:11;8.77;;;4.20;;
6527;SDS011;64597;42.664;23.256;2023-11-21T00:07:39;8.77;;;4.43;;
6527;SDS011;64597;42.664;23.256;2023-11-21T00:10:05;5.90;;;3.53;;
6527;SDS011;64597;42.664;23.256;2023-11-21T00:12:32;9.80;;;3.92;;
6527;SDS011;64597;42.664;23.256;2023-11-21T00:14:58;8.68;;;5.10;;
6527;SDS011;64597;42.664;23.256;2023-11-21T00:17:24;10.93;;;5.82;;
6527;SDS011;64597;42.664;23.256;2023-11-21T00:19:51;18.35;;;8.13;;
6527;SDS011;64597;42.664;23.256;2023-11-21T00:22:17;16.48;;;7.75;;
6527;SDS011;64597;42.664;23.256;2023-11-21T00:24:43;14.70;;;6.63;;
6527;SDS011;64597;42.664;23.256;2023-11-21T00:27:09;13.75;;;5.70;;
6527;SDS011;64597;42.664;23.256;2023-11-21T00:29:34;13.32;;;5.75;;
6527;SDS011;64597;42.664;23.256;2023-11-21T00:32:00;9.55;;;3.95;;
6527;SDS011;64597;42.664;23.256;2023-11-21T00:34:25;10.13;;;4.45;;
6527;SDS011;64597;42.664;23.256;2023-11-21T00:36:50;11.35;;;5.20;;
6527;SDS011;64597;42.664;23.256;2023-11-21T00:39:16;11.52;;;5.50;;
6527;SDS011;64597;42.664;23.256;2023-11-21T00:41:41;12.15;;;5.07;;
6527;SDS011;64597;42.664;23.256;2023-11-21T00:44:07;7.60;;;4.13;;
6527;SDS011;64597;42.664;23.256;2023-11-21T00:46:32;9.13;;;4.43;;
6527;SDS011;64597;42.664;23.256;2023-11-21T00:48:58;8.77;;;4.53;;
6527;SDS011;64597;42.664;23.256;2023-11-21T00:51:23;14.00;;;5.47;;
6527;SDS011;64597;42.664;23.256;2023-11-21T00:53:49;8.18;;;4.47;;
6527;SDS011;64597;42.664;23.256;2023-11-21T00:56:15;6.25;;;3.50;;
6527;SDS011;64597;42.664;23.256;2023-11-21T00:58:41;8.48;;;4.05;;
6527;SDS011;64597;42.664;23.256;2023-11-21T01:01:08;8.52;;;3.70;;
6527;SDS011;64597;42.664;23.256;2023-11-21T01:03:34;7.72;;;4.15;;
6527;SDS011;64597;42.664;23.256;2023-11-21T01:06:00;6.57;;;3.20;;
6527;SDS011;64597;42.664;23.256;2023-11-21T01:08:25;7.30;;;3.63;;
6527;SDS011;64597;42.664;23.256;2023-11-21T01:10:51;10.52;;;3.97;;
6527;SDS011;64597;42.664;23.256;2023-11-21T01:13:16;6.57;;;3.47;;
6527;SDS011;64597;42.664;23.256;2023-11-21T01:15:42;8.73;;;4.22;;
6527;SDS011;64597;42.664;23.256;2023-11-21T01:18:07;6.53;;;3.58;;
6527;SDS011;64597;42.664;23.256;2023-11-21T01:20:33;9.32;;;4.13;;
6527;SDS011;64597;42.664;23.256;2023-11-21T01:22:59;8.23;;;4.05;;
6527;SDS011;64597;42.664;23.256;2023-11-21T01:25:25;8.38;;;4.03;;
6527;SDS011;64597;42.664;23.256;2023-11-21T01:27:51;6.57;;;3.53;;
6527;SDS011;64597;42.664;23.256;2023-11-21T01:30:16;7.65;;;4.25;;
6527;SDS011;64597;42.664;23.256;2023-11-21T01:32:42;7.05;;;4.15;;
6527;SDS011;64597;42.664;23.256;2023-11-21T01:35:08;7.35;;;3.17;;
6527;SDS011;64597;42.664;23.256;2023-11-21T01:37:35;7.45;;;3.30;;
6527;SDS011;64597;42.664;23.256;2023-11-21T01:40:01;8.25;;;3.65;;
6527;SDS011;64597;42.664;23.256;2023-11-21T01:42:27;7.28;;;4.25;;
6527;SDS011;64597;42.664;23.256;2023-11-21T01:44:54;6.28;;;2.97;;
6527;SDS011;64597;42.664;23.256;2023-11-21T01:47:20;4.15;;;2.30;;
6527;SDS011;64597;42.664;23.256;2023-11-21T01:49:46;6.72;;;2.60;;
6527;SDS011;64597;42.664;23.256;2023-11-21T01:52:12;5.85;;;2.78;;
6527;SDS011;64597;42.664;23.256;2023-11-21T01:54:38;4.88;;;2.70;;
6527;SDS011;64597;42.664;23.256;2023-11-21T01:57:04;5.43;;;2.60;;
6527;SDS011;64597;42.664;23.256;2023-11-21T01:59:37;6.18;;;2.90;;
6527;SDS011;64597;42.664;23.256;2023-11-21T02:02:04;7.55;;;2.92;;
6527;SDS011;64597;42.664;23.256;2023-11-21T02:04:33;8.65;;;3.22;;
6527;SDS011;64597;42.664;23.256;2023-11-21T02:06:59;5.72;;;3.05;;
6527;SDS011;64597;42.664;23.256;2023-11-21T02:09:26;3.75;;;1.88;;
6527;SDS011;64597;42.664;23.256;2023-11-21T02:11:52;4.13;;;2.17;;
6527;SDS011;64597;42.664;23.256;2023-11-21T02:14:19;3.78;;;2.28;;
6527;SDS011;64597;42.664;23.256;2023-11-21T02:16:47;4.95;;;2.63;;
6527;SDS011;64597;42.664;23.256;2023-11-21T02:19:14;4.22;;;2.25;;
6527;SDS011;64597;42.664;23.256;2023-11-21T02:21:45;4.85;;;2.42;;
6527;SDS011;64597;42.664;23.256;2023-11-21T02:24:11;3.20;;;1.95;;
6527;SDS011;64597;42.664;23.256;2023-11-21T02:26:36;4.05;;;2.13;;
6527;SDS011;64597;42.664;23.256;2023-11-21T02:29:02;4.47;;;2.55;;
6527;SDS011;64597;42.664;23.256;2023-11-21T02:31:29;6.03;;;2.35;;
6527;SDS011;64597;42.664;23.256;2023-11-21T02:33:55;3.83;;;2.00;;
6527;SDS011;64597;42.664;23.256;2023-11-21T02:36:20;4.10;;;2.50;;
6527;SDS011;64597;42.664;23.256;2023-11-21T02:38:46;6.55;;;3.08;;
6527;SDS011;64597;42.664;23.256;2023-11-21T02:41:12;4.72;;;2.63;;
6527;SDS011;64597;42.664;23.256;2023-11-21T02:43:38;5.75;;;2.90;;
6527;SDS011;64597;42.664;23.256;2023-11-21T02:46:03;6.65;;;2.78;;
6527;SDS011;64597;42.664;23.256;2023-11-21T02:48:29;5.65;;;3.20;;
6527;SDS011;64597;42.664;23.256;2023-11-21T02:50:55;8.98;;;4.03;;
6527;SDS011;64597;42.664;23.256;2023-11-21T02:53:21;7.95;;;3.53;;
6527;SDS011;64597;42.664;23.256;2023-11-21T02:55:46;6.00;;;3.58;;
6527;SDS011;64597;42.664;23.256;2023-11-21T02:58:12;4.40;;;2.75;;
6527;SDS011;64597;42.664;23.256;2023-11-21T03:00:37;6.53;;;3.47;;
6527;SDS011;64597;42.664;23.256;2023-11-21T03:03:05;6.10;;;3.53;;
6527;SDS011;64597;42.664;23.256;2023-11-21T03:05:30;6.32;;;3.00;;
6527;SDS011;64597;42.664;23.256;2023-11-21T03:07:56;5.93;;;3.45;;
6527;SDS011;64597;42.664;23.256;2023-11-21T03:10:21;7.60;;;4.13;;
6527;SDS011;64597;42.664;23.256;2023-11-21T03:12:48;6.93;;;3.28;;
6527;SDS011;64597;42.664;23.256;2023-11-21T03:15:13;6.95;;;3.28;;
6527;SDS011;64597;42.664;23.256;2023-11-21T03:17:39;6.88;;;4.05;;
6527;SDS011;64597;42.664;23.256;2023-11-21T03:20:05;6.70;;;3.70;;
6527;SDS011;64597;42.664;23.256;2023-11-21T03:22:31;7.13;;;3.28;;
6527;SDS011;64597;42.664;23.256;2023-11-21T03:24:56;9.05;;;3.10;;
6527;SDS011;64597;42.664;23.256;2023-11-21T03:27:22;5.63;;;2.97;;
6527;SDS011;64597;42.664;23.256;2023-11-21T03:29:48;6.03;;;3.92;;
6527;SDS011;64597;42.664;23.256;2023-11-21T03:32:13;6.53;;;3.33;;
6527;SDS011;64597;42.664;23.256;2023-11-21T03:34:52;5.03;;;2.67;;
6527;SDS011;64597;42.664;23.256;2023-11-21T03:37:22;6.68;;;3.63;;
6527;SDS011;64597;42.664;23.256;2023-11-21T03:39:50;5.75;;;3.28;;
6527;SDS011;64597;42.664;23.256;2023-11-21T03:42:21;5.70;;;2.85;;
6527;SDS011;64597;42.664;23.256;2023-11-21T03:44:46;5.60;;;3.22;;
6527;SDS011;64597;42.664;23.256;2023-11-21T03:47:12;6.78;;;3.08;;
6527;SDS011;64597;42.664;23.256;2023-11-21T03:49:37;6.50;;;3.15;;
6527;SDS011;64597;42.664;23.256;2023-11-21T03:52:03;3.67;;;2.60;;
6527;SDS011;64597;42.664;23.256;2023-11-21T03:54:29;4.82;;;3.20;;
6527;SDS011;64597;42.664;23.256;2023-11-21T03:56:54;6.20;;;3.45;;
6527;SDS011;64597;42.664;23.256;2023-11-21T03:59:20;5.95;;;3.40;;
6527;SDS011;64597;42.664;23.256;2023-11-21T04:01:45;6.57;;;4.07;;
6527;SDS011;64597;42.664;23.256;2023-11-21T04:04:11;7.13;;;3.17;;
6527;SDS011;64597;42.664;23.256;2023-11-21T04:06:37;7.20;;;3.25;;
6527;SDS011;64597;42.664;23.256;2023-11-21T04:09:03;6.90;;;3.65;;
6527;SDS011;64597;42.664;23.256;2023-11-21T04:11:29;6.60;;;3.30;;
6527;SDS011;64597;42.664;23.256;2023-11-21T04:13:55;6.65;;;3.60;;
6527;SDS011;64597;42.664;23.256;2023-11-21T04:16:21;6.50;;;3.38;;
6527;SDS011;64597;42.664;23.256;2023-11-21T04:18:46;9.50;;;4.18;;
6527;SDS011;64597;42.664;23.256;2023-11-21T04:21:11;5.90;;;3.22;;
6527;SDS011;64597;42.664;23.256;2023-11-21T04:23:37;6.43;;;3.25;;
6527;SDS011;64597;42.664;23.256;2023-11-21T04:26:02;5.30;;;3.30;;
6527;SDS011;64597;42.664;23.256;2023-11-21T04:28:29;6.53;;;3.08;;
6527;SDS011;64597;42.664;23.256;2023-11-21T04:30:56;8.48;;;4.30;;
6527;SDS011;64597;42.664;23.256;2023-11-21T04:33:22;7.55;;;4.28;;
6527;SDS011;64597;42.664;23.256;2023-11-21T04:35:47;7.43;;;3.75;;
6527;SDS011;64597;42.664;23.256;2023-11-21T04:38:13;8.70;;;4.10;;
6527;SDS011;64597;42.664;23.256;2023-11-21T04:40:38;10.13;;;4.65;;
6527;SDS011;64597;42.664;23.256;2023-11-21T04:43:04;13.43;;;5.53;;
6527;SDS011;64597;42.664;23.256;2023-11-21T04:45:29;12.27;;;5.57;;
6527;SDS011;64597;42.664;23.256;2023-11-21T04:47:55;10.35;;;4.75;;
6527;SDS011;64597;42.664;23.256;2023-11-21T04:50:21;9.95;;;5.63;;
6527;SDS011;64597;42.664;23.256;2023-11-21T04:52:46;13.98;;;6.43;;
6527;SDS011;64597;42.664;23.256;2023-11-21T04:55:12;16.05;;;6.10;;
6527;SDS011;64597;42.664;23.256;2023-11-21T04:57:38;17.60;;;5.75;;
6527;SDS011;64597;42.664;23.256;2023-11-21T05:00:06;8.07;;;4.53;;
6527;SDS011;64597;42.664;23.256;2023-11-21T05:02:32;7.35;;;4.97;;
6527;SDS011;64597;42.664;23.256;2023-11-21T05:05:01;12.90;;;5.65;;
6527;SDS011;64597;42.664;23.256;2023-11-21T05:07:27;9.35;;;5.40;;
6527;SDS011;64597;42.664;23.256;2023-11-21T05:09:55;10.68;;;5.60;;
6527;SDS011;64597;42.664;23.256;2023-11-21T05:12:24;9.15;;;5.90;;
6527;SDS011;64597;42.664;23.256;2023-11-21T05:14:50;12.18;;;5.57;;
6527;SDS011;64597;42.664;23.256;2023-11-21T05:17:16;14.20;;;6.38;;
6527;SDS011;64597;42.664;23.256;2023-11-21T05:19:42;11.82;;;6.32;;
6527;SDS011;64597;42.664;23.256;2023-11-21T05:22:08;16.08;;;8.57;;
6527;SDS011;64597;42.664;23.256;2023-11-21T05:24:33;16.73;;;9.38;;
6527;SDS011;64597;42.664;23.256;2023-11-21T05:27:00;18.08;;;8.93;;
6527;SDS011;64597;42.664;23.256;2023-11-21T05:29:27;17.05;;;8.65;;
6527;SDS011;64597;42.664;23.256;2023-11-21T05:31:53;12.15;;;7.97;;
6527;SDS011;64597;42.664;23.256;2023-11-21T05:34:19;14.18;;;7.55;;
6527;SDS011;64597;42.664;23.256;2023-11-21T05:36:45;15.63;;;7.82;;
6527;SDS011;64597;42.664;23.256;2023-11-21T05:39:11;15.70;;;7.50;;
6527;SDS011;64597;42.664;23.256;2023-11-21T05:41:37;9.55;;;6.75;;
6527;SDS011;64597;42.664;23.256;2023-11-21T05:44:02;15.77;;;8.05;;
6527;SDS011;64597;42.664;23.256;2023-11-21T05:46:28;12.50;;;8.05;;
6527;SDS011;64597;42.664;23.256;2023-11-21T05:48:53;10.23;;;7.35;;
6527;SDS011;64597;42.664;23.256;2023-11-21T05:51:20;12.40;;;6.95;;
6527;SDS011;64597;42.664;23.256;2023-11-21T05:53:45;12.38;;;7.72;;
6527;SDS011;64597;42.664;23.256;2023-11-21T05:56:11;12.75;;;7.80;;
6527;SDS011;64597;42.664;23.256;2023-11-21T05:58:37;18.27;;;8.57;;
6527;SDS011;64597;42.664;23.256;2023-11-21T06:01:05;13.27;;;7.75;;
6527;SDS011;64597;42.664;23.256;2023-11-21T06:03:32;11.68;;;8.10;;
6527;SDS011;64597;42.664;23.256;2023-11-21T06:05:58;11.50;;;8.15;;
6527;SDS011;64597;42.664;23.256;2023-11-21T06:08:23;15.27;;;7.90;;
6527;SDS011;64597;42.664;23.256;2023-11-21T06:10:51;17.88;;;8.98;;
6527;SDS011;64597;42.664;23.256;2023-11-21T06:13:17;13.80;;;9.25;;
6527;SDS011;64597;42.664;23.256;2023-11-21T06:15:50;16.30;;;8.90;;
6527;SDS011;64597;42.664;23.256;2023-11-21T06:18:16;18.58;;;9.35;;
6527;SDS011;64597;42.664;23.256;2023-11-21T06:20:44;19.48;;;9.55;;
6527;SDS011;64597;42.664;23.256;2023-11-21T06:23:10;18.52;;;10.82;;
6527;SDS011;64597;42.664;23.256;2023-11-21T06:25:35;21.33;;;10.88;;
6527;SDS011;64597;42.664;23.256;2023-11-21T06:28:01;18.85;;;10.52;;
6527;SDS011;64597;42.664;23.256;2023-11-21T06:30:27;20.55;;;11.57;;
6527;SDS011;64597;42.664;23.256;2023-11-21T06:32:54;23.83;;;12.35;;
6527;SDS011;64597;42.664;23.256;2023-11-21T06:35:20;25.35;;;13.38;;
6527;SDS011;64597;42.664;23.256;2023-11-21T06:37:46;21.52;;;12.90;;
6527;SDS011;64597;42.664;23.256;2023-11-21T06:40:16;25.75;;;14.23;;
6527;SDS011;64597;42.664;23.256;2023-11-21T06:42:43;30.77;;;16.75;;
6527;SDS011;64597;42.664;23.256;2023-11-21T06:45:09;28.88;;;14.98;;
6527;SDS011;64597;42.664;23.256;2023-11-21T06:47:36;30.85;;;15.63;;
6527;SDS011;64597;42.664;23.256;2023-11-21T06:50:01;32.92;;;15.98;;
6527;SDS011;64597;42.664;23.256;2023-11-21T06:52:27;30.60;;;16.65;;
6527;SDS011;64597;42.664;23.256;2023-11-21T06:54:52;28.42;;;16.45;;
6527;SDS011;64597;42.664;23.256;2023-11-21T06:57:18;30.65;;;15.98;;
6527;SDS011;64597;42.664;23.256;2023-11-21T06:59:43;27.65;;;16.52;;
6527;SDS011;64597;42.664;23.256;2023-11-21T07:02:09;35.20;;;18.77;;
6527;SDS011;64597;42.664;23.256;2023-11-21T07:04:37;29.23;;;16.00;;
6527;SDS011;64597;42.664;23.256;2023-11-21T07:07:03;27.33;;;14.60;;
6527;SDS011;64597;42.664;23.256;2023-11-21T07:09:29;29.58;;;15.80;;
6527;SDS011;64597;42.664;23.256;2023-11-21T07:11:56;27.15;;;16.25;;
6527;SDS011;64597;42.664;23.256;2023-11-21T07:14:21;33.58;;;18.73;;
6527;SDS011;64597;42.664;23.256;2023-11-21T07:16:47;32.17;;;17.08;;
6527;SDS011;64597;42.664;23.256;2023-11-21T07:19:12;25.70;;;15.00;;
6527;SDS011;64597;42.664;23.256;2023-11-21T07:21:38;25.45;;;14.95;;
6527;SDS011;64597;42.664;23.256;2023-11-21T07:24:04;28.35;;;15.88;;
6527;SDS011;64597;42.664;23.256;2023-11-21T07:26:34;29.20;;;15.45;;
6527;SDS011;64597;42.664;23.256;2023-11-21T07:29:01;31.98;;;16.15;;
6527;SDS011;64597;42.664;23.256;2023-11-21T07:31:31;32.95;;;17.05;;
6527;SDS011;64597;42.664;23.256;2023-11-21T07:33:59;26.00;;;15.68;;
6527;SDS011;64597;42.664;23.256;2023-11-21T07:36:24;32.45;;;15.73;;
6527;SDS011;64597;42.664;23.256;2023-11-21T07:38:50;27.10;;;15.13;;
6527;SDS011;64597;42.664;23.256;2023-11-21T07:41:16;28.35;;;15.95;;
6527;SDS011;64597;42.664;23.256;2023-11-21T07:43:43;27.00;;;15.52;;
6527;SDS011;64597;42.664;23.256;2023-11-21T07:46:09;30.98;;;16.13;;
6527;SDS011;64597;42.664;23.256;2023-11-21T07:48:35;26.63;;;15.32;;
6527;SDS011;64597;42.664;23.256;2023-11-21T07:51:01;30.90;;;15.93;;
6527;SDS011;64597;42.664;23.256;2023-11-21T07:53:31;24.08;;;15.32;;
6527;SDS011;64597;42.664;23.256;2023-11-21T07:55:58;28.15;;;15.60;;
6527;SDS011;64597;42.664;23.256;2023-11-21T07:58:27;23.35;;;14.48;;
6527;SDS011;64597;42.664;23.256;2023-11-21T08:00:53;27.35;;;14.70;;
6527;SDS011;64597;42.664;23.256;2023-11-21T08:03:21;25.95;;;15.00;;
6527;SDS011;64597;42.664;23.256;2023-11-21T08:05:47;25.13;;;14.63;;
6527;SDS011;64597;42.664;23.256;2023-11-21T08:08:12;28.10;;;14.13;;
6527;SDS011;64597;42.664;23.256;2023-11-21T08:10:38;35.10;;;15.07;;
6527;SDS011;64597;42.664;23.256;2023-11-21T08:13:07;27.67;;;14.77;;
6527;SDS011;64597;42.664;23.256;2023-11-21T08:15:34;26.13;;;14.43;;
6527;SDS011;64597;42.664;23.256;2023-11-21T08:18:02;25.40;;;14.45;;
6527;SDS011;64597;42.664;23.256;2023-11-21T08:20:27;30.45;;;14.88;;
6527;SDS011;64597;42.664;23.256;2023-11-21T08:22:53;24.95;;;14.68;;
6527;SDS011;64597;42.664;23.256;2023-11-21T08:25:19;30.15;;;16.73;;
6527;SDS011;64597;42.664;23.256;2023-11-21T08:27:45;29.77;;;17.88;;
6527;SDS011;64597;42.664;23.256;2023-11-21T08:30:11;27.92;;;16.48;;
6527;SDS011;64597;42.664;23.256;2023-11-21T08:32:38;35.67;;;16.15;;
6527;SDS011;64597;42.664;23.256;2023-11-21T08:35:04;34.78;;;15.68;;
6527;SDS011;64597;42.664;23.256;2023-11-21T08:37:31;21.60;;;13.50;;
6527;SDS011;64597;42.664;23.256;2023-11-21T08:39:58;27.75;;;15.85;;
6527;SDS011;64597;42.664;23.256;2023-11-21T08:42:27;23.15;;;14.77;;
6527;SDS011;64597;42.664;23.256;2023-11-21T08:44:55;24.17;;;13.75;;
6527;SDS011;64597;42.664;23.256;2023-11-21T08:47:22;26.45;;;14.13;;
6527;SDS011;64597;42.664;23.256;2023-11-21T08:49:49;27.48;;;14.50;;
6527;SDS011;64597;42.664;23.256;2023-11-21T08:52:17;31.52;;;18.55;;
6527;SDS011;64597;42.664;23.256;2023-11-21T08:54:42;27.33;;;15.88;;
6527;SDS011;64597;42.664;23.256;2023-11-21T08:57:10;26.20;;;15.15;;
6527;SDS011;64597;42.664;23.256;2023-11-21T08:59:36;22.85;;;13.70;;
6527;SDS011;64597;42.664;23.256;2023-11-21T09:02:01;24.65;;;15.10;;
6527;SDS011;64597;42.664;23.256;2023-11-21T09:04:27;21.15;;;14.50;;
6527;SDS011;64597;42.664;23.256;2023-11-21T09:06:52;27.67;;;16.60;;
6527;SDS011;64597;42.664;23.256;2023-11-21T09:09:18;24.63;;;14.88;;
6527;SDS011;64597;42.664;23.256;2023-11-21T09:11:44;23.88;;;13.80;;
6527;SDS011;64597;42.664;23.256;2023-11-21T09:14:11;22.75;;;13.48;;
6527;SDS011;64597;42.664;23.256;2023-11-21T09:16:38;26.48;;;14.57;;
6527;SDS011;64597;42.664;23.256;2023-11-21T09:19:04;23.67;;;13.90;;
6527;SDS011;64597;42.664;23.256;2023-11-21T09:21:30;24.98;;;14.00;;
6527;SDS011;64597;42.664;23.256;2023-11-21T09:23:56;24.42;;;15.38;;
6527;SDS011;64597;42.664;23.256;2023-11-21T09:26:21;22.15;;;14.20;;
6527;SDS011;64597;42.664;23.256;2023-11-21T09:28:47;27.23;;;13.63;;
6527;SDS011;64597;42.664;23.256;2023-11-21T09:31:13;25.80;;;15.70;;
6527;SDS011;64597;42.664;23.256;2023-11-21T09:33:41;25.42;;;14.70;;
6527;SDS011;64597;42.664;23.256;2023-11-21T09:36:11;27.23;;;15.13;;
6527;SDS011;64597;42.664;23.256;2023-11-21T09:38:38;24.38;;;14.68;;
6527;SDS011;64597;42.664;23.256;2023-11-21T09:47:07;21.73;;;13.35;;
6527;SDS011;64597;42.664;23.256;2023-11-21T09:49:35;20.92;;;12.27;;
6527;SDS011;64597;42.664;23.256;2023-11-21T09:52:03;19.23;;;12.90;;
6527;SDS011;64597;42.664;23.256;2023-11-21T09:54:31;19.63;;;11.63;;
6527;SDS011;64597;42.664;23.256;2023-11-21T09:56:59;16.33;;;10.02;;
6527;SDS011;64597;42.664;23.256;2023-11-21T09:59:25;19.73;;;10.98;;
6527;SDS011;64597;42.664;23.256;2023-11-21T10:01:56;16.65;;;9.27;;
6527;SDS011;64597;42.664;23.256;2023-11-21T10:04:23;15.80;;;8.63;;
6527;SDS011;64597;42.664;23.256;2023-11-21T10:06:49;12.77;;;8.98;;
6527;SDS011;64597;42.664;23.256;2023-11-21T10:09:16;18.23;;;9.48;;
6527;SDS011;64597;42.664;23.256;2023-11-21T10:11:42;21.60;;;9.68;;
6527;SDS011;64597;42.664;23.256;2023-11-21T10:14:11;16.40;;;8.85;;
6527;SDS011;64597;42.664;23.256;2023-11-21T10:16:39;12.88;;;8.73;;
6527;SDS011;64597;42.664;23.256;2023-11-21T10:19:08;15.45;;;8.93;;
6527;SDS011;64597;42.664;23.256;2023-11-21T10:21:35;12.65;;;8.65;;
6527;SDS011;64597;42.664;23.256;2023-11-21T10:24:03;13.88;;;8.25;;
6527;SDS011;64597;42.664;23.256;2023-11-21T10:26:28;17.80;;;8.73;;
6527;SDS011;64597;42.664;23.256;2023-11-21T10:29:00;17.80;;;10.00;;
6527;SDS011;64597;42.664;23.256;2023-11-21T10:31:30;11.35;;;8.38;;
6527;SDS011;64597;42.664;23.256;2023-11-21T10:34:15;14.52;;;8.93;;
6527;SDS011;64597;42.664;23.256;2023-11-21T10:36:41;15.85;;;9.35;;
6527;SDS011;64597;42.664;23.256;2023-11-21T10:39:07;16.50;;;9.98;;
6527;SDS011;64597;42.664;23.256;2023-11-21T10:41:34;19.02;;;9.48;;
6527;SDS011;64597;42.664;23.256;2023-11-21T10:44:00;17.05;;;9.95;;
6527;SDS011;64597;42.664;23.256;2023-11-21T10:46:29;14.07;;;10.02;;
6527;SDS011;64597;42.664;23.256;2023-11-21T10:48:55;20.40;;;11.23;;
6527;SDS011;64597;42.664;23.256;2023-11-21T10:51:21;15.77;;;9.02;;
6527;SDS011;64597;42.664;23.256;2023-11-21T10:53:47;17.58;;;10.10;;
6527;SDS011;64597;42.664;23.256;2023-11-21T10:56:15;21.45;;;12.23;;
6527;SDS011;64597;42.664;23.256;2023-11-21T10:58:46;16.95;;;11.25;;
6527;SDS011;64597;42.664;23.256;2023-11-21T11:01:14;19.50;;;11.65;;
6527;SDS011;64597;42.664;23.256;2023-11-21T11:03:43;18.85;;;11.18;;
6527;SDS011;64597;42.664;23.256;2023-11-21T11:06:10;24.35;;;12.40;;
6527;SDS011;64597;42.664;23.256;2023-11-21T11:08:37;22.40;;;12.90;;
6527;SDS011;64597;42.664;23.256;2023-11-21T11:11:06;20.55;;;12.95;;
6527;SDS011;64597;42.664;23.256;2023-11-21T11:15:59;21.42;;;11.43;;
6527;SDS011;64597;42.664;23.256;2023-11-21T11:18:29;19.45;;;11.80;;
6527;SDS011;64597;42.664;23.256;2023-11-21T11:20:56;16.23;;;11.02;;
6527;SDS011;64597;42.664;23.256;2023-11-21T11:23:59;22.83;;;11.68;;
6527;SDS011;64597;42.664;23.256;2023-11-21T11:34:35;20.63;;;12.63;;
6527;SDS011;64597;42.664;23.256;2023-11-21T11:39:38;22.02;;;11.45;;
6527;SDS011;64597;42.664;23.256;2023-11-21T11:42:16;22.33;;;11.95;;
6527;SDS011;64597;42.664;23.256;2023-11-21T11:50:08;24.10;;;13.30;;
6527;SDS011;64597;42.664;23.256;2023-11-21T11:52:48;22.45;;;13.80;;
6527;SDS011;64597;42.664;23.256;2023-11-21T11:55:18;25.15;;;12.48;;
6527;SDS011;64597;42.664;23.256;2023-11-21T11:57:49;25.15;;;13.52;;
6527;SDS011;64597;42.664;23.256;2023-11-21T12:00:41;23.83;;;14.20;;
6527;SDS011;64597;42.664;23.256;2023-11-21T12:05:33;24.50;;;14.70;;
6527;SDS011;64597;42.664;23.256;2023-11-21T12:08:03;23.98;;;16.05;;
6527;SDS011;64597;42.664;23.256;2023-11-21T12:10:31;28.70;;;17.15;;
6527;SDS011;64597;42.664;23.256;2023-11-21T12:13:05;34.25;;;20.50;;
6527;SDS011;64597;42.664;23.256;2023-11-21T12:15:32;36.83;;;22.48;;
6527;SDS011;64597;42.664;23.256;2023-11-21T12:18:00;29.38;;;19.83;;
6527;SDS011;64597;42.664;23.256;2023-11-21T12:20:27;27.00;;;16.02;;
6527;SDS011;64597;42.664;23.256;2023-11-21T12:25:26;22.20;;;14.60;;
6527;SDS011;64597;42.664;23.256;2023-11-21T12:28:00;25.98;;;16.15;;
6527;SDS011;64597;42.664;23.256;2023-11-21T12:30:28;20.48;;;14.73;;
6527;SDS011;64597;42.664;23.256;2023-11-21T12:35:24;26.60;;;16.17;;
6527;SDS011;64597;42.664;23.256;2023-11-21T12:37:51;27.58;;;16.23;;
6527;SDS011;64597;42.664;23.256;2023-11-21T12:40:18;26.15;;;17.00;;
6527;SDS011;64597;42.664;23.256;2023-11-21T12:42:45;29.63;;;16.67;;
6527;SDS011;64597;42.664;23.256;2023-11-21T12:47:44;24.88;;;15.80;;
6527;SDS011;64597;42.664;23.256;2023-11-21T12:50:15;27.55;;;16.92;;
6527;SDS011;64597;42.664;23.256;2023-11-21T12:52:46;32.88;;;16.77;;
6527;SDS011;64597;42.664;23.256;2023-11-21T12:55:13;26.98;;;15.52;;
6527;SDS011;64597;42.664;23.256;2023-11-21T12:57:44;28.30;;;15.70;;
6527;SDS011;64597;42.664;23.256;2023-11-21T13:00:10;23.75;;;13.77;;
6527;SDS011;64597;42.664;23.256;2023-11-21T13:02:41;22.92;;;13.93;;
6527;SDS011;64597;42.664;23.256;2023-11-21T13:05:08;24.60;;;14.10;;
6527;SDS011;64597;42.664;23.256;2023-11-21T13:07:43;26.85;;;14.63;;
6527;SDS011;64597;42.664;23.256;2023-11-21T13:10:12;25.50;;;16.13;;
6527;SDS011;64597;42.664;23.256;2023-11-21T13:12:44;25.20;;;14.82;;
6527;SDS011;64597;42.664;23.256;2023-11-21T13:15:13;20.20;;;14.63;;
6527;SDS011;64597;42.664;23.256;2023-11-21T13:17:43;31.45;;;15.98;;
6527;SDS011;64597;42.664;23.256;2023-11-21T13:20:12;33.88;;;16.33;;
6527;SDS011;64597;42.664;23.256;2023-11-21T13:25:24;23.30;;;14.98;;
6527;SDS011;64597;42.664;23.256;2023-11-21T13:27:53;24.75;;;15.48;;
6527;SDS011;64597;42.664;23.256;2023-11-21T13:30:19;25.65;;;14.68;;
6527;SDS011;64597;42.664;23.256;2023-11-21T13:32:51;26.33;;;16.10;;
6527;SDS011;64597;42.664;23.256;2023-11-21T13:35:18;25.95;;;14.63;;
6527;SDS011;64597;42.664;23.256;2023-11-21T13:37:51;24.02;;;15.48;;
6527;SDS011;64597;42.664;23.256;2023-11-21T13:40:20;20.73;;;12.82;;
6527;SDS011;64597;42.664;23.256;2023-11-21T13:42:50;27.48;;;14.38;;
6527;SDS011;64597;42.664;23.256;2023-11-21T13:45:18;29.77;;;15.82;;
6527;SDS011;64597;42.664;23.256;2023-11-21T13:47:48;26.40;;;15.63;;
6527;SDS011;64597;42.664;23.256;2023-11-21T13:50:16;30.40;;;16.15;;
6527;SDS011;64597;42.664;23.256;2023-11-21T13:52:47;27.48;;;16.17;;
6527;SDS011;64597;42.664;23.256;2023-11-21T13:55:16;28.60;;;15.25;;
6527;SDS011;64597;42.664;23.256;2023-11-21T13:57:42;29.70;;;17.48;;
6527;SDS011;64597;42.664;23.256;2023-11-21T14:00:14;35.25;;;19.88;;
6527;SDS011;64597;42.664;23.256;2023-11-21T14:02:59;29.00;;;17.92;;
6527;SDS011;64597;42.664;23.256;2023-11-21T14:05:29;32.72;;;17.75;;
6527;SDS011;64597;42.664;23.256;2023-11-21T14:07:56;27.92;;;16.88;;
6527;SDS011;64597;42.664;23.256;2023-11-21T14:10:31;30.98;;;16.98;;
6527;SDS011;64597;42.664;23.256;2023-11-21T14:13:08;27.42;;;15.32;;
6527;SDS011;64597;42.664;23.256;2023-11-21T14:15:35;27.15;;;16.50;;
6527;SDS011;64597;42.664;23.256;2023-11-21T14:18:06;27.90;;;16.73;;
6527;SDS011;64597;42.664;23.256;2023-11-21T14:20:42;28.73;;;17.27;;
6527;SDS011;64597;42.664;23.256;2023-11-21T14:23:08;25.88;;;16.40;;
6527;SDS011;64597;42.664;23.256;2023-11-21T14:25:35;27.30;;;16.40;;
6527;SDS011;64597;42.664;23.256;2023-11-21T14:28:03;34.53;;;20.27;;
6527;SDS011;64597;42.664;23.256;2023-11-21T14:30:31;31.05;;;19.63;;
6527;SDS011;64597;42.664;23.256;2023-11-21T14:33:01;35.17;;;19.55;;
6527;SDS011;64597;42.664;23.256;2023-11-21T14:35:27;36.65;;;21.65;;
6527;SDS011;64597;42.664;23.256;2023-11-21T14:37:55;35.75;;;20.90;;
6527;SDS011;64597;42.664;23.256;2023-11-21T14:40:21;31.40;;;20.00;;
6527;SDS011;64597;42.664;23.256;2023-11-21T14:42:49;39.70;;;20.70;;
6527;SDS011;64597;42.664;23.256;2023-11-21T14:45:19;37.83;;;21.98;;
6527;SDS011;64597;42.664;23.256;2023-11-21T14:47:48;37.88;;;22.75;;
6527;SDS011;64597;42.664;23.256;2023-11-21T14:50:23;36.38;;;21.63;;
6527;SDS011;64597;42.664;23.256;2023-11-21T14:53:04;38.60;;;21.83;;
6527;SDS011;64597;42.664;23.256;2023-11-21T14:55:31;39.33;;;21.73;;
6527;SDS011;64597;42.664;23.256;2023-11-21T14:58:06;34.80;;;20.48;;
6527;SDS011;64597;42.664;23.256;2023-11-21T15:00:35;41.55;;;21.42;;
6527;SDS011;64597;42.664;23.256;2023-11-21T15:03:00;36.20;;;20.73;;
6527;SDS011;64597;42.664;23.256;2023-11-21T15:05:27;34.47;;;21.83;;
6527;SDS011;64597;42.664;23.256;2023-11-21T15:07:53;36.38;;;21.15;;